Time;durP1;ratioP1;P1;durP2;ratioP2;P2;SDS_P1;SDS_P2;PMS_P1;PMS_P2;Temp;Humidity;BMP_temperature;BMP_pressure;BME280_temperature;BME280_humidity;BME280_pressure;Samples;Min_cycle;Max_cycle;Signal;HPM_P1;HPM_P2
2022/09/05 00:00:11;;;;;;;7.23;2.20;;;24.10;99.90;;;;;;6124077;23;20177;-89
2022/09/05 00:02:48;;;;;;;4.27;2.10;;;24.10;99.90;;;;;;6128077;23;20154;-88
2022/09/05 00:05:39;;;;;;;5.73;2.40;;;24.10;95.50;;;;;;6118998;23;20142;-90
2022/09/05 00:08:38;;;;;;;5.00;2.00;;;24.10;1.00;;;;;;6130431;23;20146;-92
2022/09/05 00:11:41;;;;;;;2.80;1.90;;;24.10;1.00;;;;;;6127631;23;20148;-89
2022/09/05 00:14:49;;;;;;;3.83;2.10;;;24.10;1.00;;;;;;6111882;23;20282;-88
2022/09/05 00:17:55;;;;;;;3.50;2.00;;;24.20;4.10;;;;;;6132377;23;20146;-90
2022/09/05 00:20:45;;;;;;;4.33;2.10;;;24.10;97.60;;;;;;6133883;23;20610;-94
2022/09/05 00:23:55;;;;;;;3.67;2.17;;;24.10;99.90;;;;;;6132585;23;20520;-92
2022/09/05 00:26:39;;;;;;;4.23;1.80;;;24.00;57.70;;;;;;6032644;23;20145;-95
2022/09/05 00:29:28;;;;;;;3.70;2.00;;;24.00;99.90;;;;;;6013743;23;20239;-87
2022/09/05 00:32:12;;;;;;;4.07;2.17;;;24.10;99.90;;;;;;6127080;23;20159;-89
2022/09/05 00:35:30;;;;;;;3.70;2.27;;;24.10;99.90;;;;;;6133534;23;20190;-90
2022/09/05 00:38:08;;;;;;;4.33;2.30;;;24.10;1.00;;;;;;6112510;23;20147;-88
2022/09/05 00:40:57;;;;;;;3.73;2.10;;;23.90;1.00;;;;;;6113661;23;20198;-88
2022/09/05 00:43:31;;;;;;;3.50;2.27;;;24.00;1.00;;;;;;6111332;23;20155;-89
2022/09/05 00:46:11;;;;;;;4.33;2.40;;;23.90;1.00;;;;;;6134957;23;20253;-89
2022/09/05 00:49:21;;;;;;;5.87;2.73;;;23.90;99.90;;;;;;6108598;23;20206;-88
2022/09/05 00:52:05;;;;;;;6.70;2.43;;;23.90;99.90;;;;;;6109255;23;20573;-89
2022/09/05 00:54:51;;;;;;;4.13;2.33;;;23.80;1.00;;;;;;6109921;23;20643;-88
2022/09/05 00:57:55;;;;;;;3.80;2.33;;;23.80;1.00;;;;;;6135179;23;20146;-89
2022/09/05 01:00:29;;;;;;;6.07;2.70;;;23.80;95.50;;;;;;6113019;23;20230;-90
2022/09/05 01:03:31;;;;;;;3.67;2.07;;;23.40;1.00;;;;;;6138592;23;20141;-90
2022/09/05 01:06:33;;;;;;;3.63;2.50;;;23.30;72.40;;;;;;6112449;23;20149;-89
2022/09/05 01:09:42;;;;;;;4.37;2.40;;;23.30;99.90;;;;;;6105603;23;20166;-89
2022/09/05 01:12:29;;;;;;;4.20;2.13;;;23.30;99.90;;;;;;6108331;23;20229;-91
2022/09/05 01:15:12;;;;;;;4.80;2.37;;;23.50;55.00;;;;;;6107552;23;20179;-88
2022/09/05 01:18:01;;;;;;;5.83;2.30;;;23.30;99.90;;;;;;6106362;23;20140;-89
2022/09/05 01:20:40;;;;;;;2.87;2.17;;;23.30;99.90;;;;;;6131646;23;20576;-91
2022/09/05 01:23:25;;;;;;;5.00;2.50;;;23.30;99.90;;;;;;6134166;23;20194;-90
2022/09/05 01:26:14;;;;;;;3.87;2.30;;;23.30;99.90;;;;;;6107058;23;20216;-92
2022/09/05 01:29:07;;;;;;;3.20;2.20;;;23.30;99.90;;;;;;6122114;23;20150;-89
2022/09/05 01:32:02;;;;;;;3.97;2.47;;;23.40;99.90;;;;;;6078834;23;20173;-89
2022/09/05 01:34:41;;;;;;;3.60;2.27;;;23.50;99.90;;;;;;6122658;23;20257;-88
2022/09/05 01:37:36;;;;;;;4.63;2.10;;;23.30;99.90;;;;;;6108158;23;20584;-89
2022/09/05 01:43:25;;;;;;;3.37;2.13;;;23.30;1.00;;;;;;6132665;23;20147;-89
2022/09/05 01:45:58;;;;;;;3.93;2.00;;;23.30;1.00;;;;;;6127904;23;20150;-89
2022/09/05 01:48:45;;;;;;;3.63;1.90;;;23.40;99.90;;;;;;6126984;23;20154;-89
2022/09/05 01:51:31;;;;;;;3.57;2.30;;;23.50;99.90;;;;;;6127094;23;20213;-89
2022/09/05 01:54:15;;;;;;;4.43;1.70;;;23.50;99.90;;;;;;6128552;23;20183;-88
2022/09/05 01:57:05;;;;;;;4.67;1.93;;;23.50;28.20;;;;;;6127780;23;20169;-89
2022/09/05 01:59:43;;;;;;;4.87;2.10;;;23.50;99.90;;;;;;6102375;23;20171;-89
2022/09/05 02:02:35;;;;;;;3.77;2.00;;;23.40;99.90;;;;;;6103909;23;20217;-89
2022/09/05 02:05:50;;;;;;;4.17;2.10;;;23.40;99.90;;;;;;6103357;23;20150;-90
2022/09/05 02:08:53;;;;;;;3.77;1.63;;;23.50;99.90;;;;;;6104434;23;20163;-90
2022/09/05 02:11:50;;;;;;;4.73;1.70;;;23.40;99.90;;;;;;6120894;23;20150;-88
2022/09/05 02:14:38;;;;;;;4.33;1.90;;;23.40;99.90;;;;;;6114609;23;20194;-90
2022/09/05 02:17:39;;;;;;;2.60;1.70;;;23.30;99.90;;;;;;6115196;23;20150;-87
2022/09/05 02:20:09;;;;;;;2.67;1.70;;;23.30;99.90;;;;;;6074733;23;20177;-89
2022/09/05 02:23:01;;;;;;;3.20;1.90;;;23.40;99.90;;;;;;6134369;23;20154;-92
2022/09/05 02:25:43;;;;;;;3.03;1.80;;;23.40;54.00;;;;;;6109683;23;20150;-91
2022/09/05 02:28:19;;;;;;;4.03;1.70;;;23.50;96.60;;;;;;6107819;23;20233;-90
2022/09/05 02:31:06;;;;;;;2.87;1.83;;;23.40;83.20;;;;;;6107417;23;20150;-88
2022/09/05 02:33:51;;;;;;;2.47;1.63;;;23.40;1.00;;;;;;6107248;23;20213;-88
2022/09/05 02:36:35;;;;;;;3.50;1.93;;;23.40;34.80;;;;;;6107145;23;20230;-89
2022/09/05 02:39:35;;;;;;;3.70;2.07;;;23.30;99.90;;;;;;6131778;23;20196;-91
2022/09/05 02:42:35;;;;;;;2.77;1.80;;;23.40;64.80;;;;;;6132432;23;20257;-89
2022/09/05 02:45:20;;;;;;;3.53;2.10;;;23.20;99.90;;;;;;6118042;23;20184;-90
2022/09/05 02:48:07;;;;;;;4.67;2.07;;;23.30;99.90;;;;;;6127106;23;20145;-88
2022/09/05 02:51:03;;;;;;;4.10;1.90;;;23.30;99.90;;;;;;6127941;23;20150;-88
2022/09/05 02:53:31;;;;;;;4.57;2.00;;;23.30;94.80;;;;;;6142091;23;20174;-93
2022/09/05 02:56:35;;;;;;;4.50;2.10;;;23.30;1.00;;;;;;6129051;23;20142;-90
2022/09/05 02:59:25;;;;;;;2.77;1.90;;;23.40;1.00;;;;;;6137449;23;20224;-89
2022/09/05 03:05:23;;;;;;;3.07;2.10;;;23.30;1.00;;;;;;6134681;23;20153;-90
2022/09/05 03:07:55;;;;;;;3.70;1.97;;;23.20;99.90;;;;;;6108514;23;20145;-89
2022/09/05 03:10:50;;;;;;;3.70;2.10;;;23.20;99.90;;;;;;6131843;23;20209;-89
2022/09/05 03:13:56;;;;;;;3.90;1.93;;;23.20;99.90;;;;;;6139128;23;20155;-89
2022/09/05 03:16:59;;;;;;;3.07;1.80;;;23.30;1.00;;;;;;6127303;23;20174;-88
2022/09/05 03:20:04;;;;;;;5.47;2.00;;;23.20;1.00;;;;;;6141515;23;20153;-90
2022/09/05 03:26:22;;;;;;;3.90;1.87;;;23.30;1.00;;;;;;6131561;23;20234;-90
2022/09/05 03:29:21;;;;;;;2.50;1.50;;;23.10;1.00;;;;;;6109045;23;20173;-88
2022/09/05 03:32:11;;;;;;;3.93;1.73;;;23.00;6.00;;;;;;6108027;23;20155;-88
2022/09/05 03:35:36;;;;;;;3.57;1.97;;;23.00;99.90;;;;;;6133792;23;20180;-88
2022/09/05 03:38:26;;;;;;;5.63;2.20;;;23.10;1.00;;;;;;5993291;23;20177;-91
2022/09/05 03:41:00;;;;;;;3.00;2.00;;;23.10;1.00;;;;;;6131147;23;20173;-89
2022/09/05 03:44:02;;;;;;;3.83;2.00;;;23.10;79.20;;;;;;6107764;23;20233;-89
2022/09/05 03:47:06;;;;;;;2.97;2.10;;;23.10;1.00;;;;;;6111530;23;20142;-90
2022/09/05 03:49:45;;;;;;;3.80;1.83;;;23.10;22.80;;;;;;6128863;23;20158;-92
2022/09/05 03:52:29;;;;;;;3.57;1.80;;;23.10;99.90;;;;;;6123468;23;20157;-88
2022/09/05 03:55:29;;;;;;;3.60;1.83;;;23.00;99.90;;;;;;6130359;23;20275;-89
2022/09/05 03:58:09;;;;;;;3.40;1.93;;;23.10;1.00;;;;;;6106623;23;20152;-88
2022/09/05 04:01:04;;;;;;;3.20;1.73;;;23.10;1.00;;;;;;6131057;23;20148;-90
2022/09/05 04:03:50;;;;;;;3.07;2.13;;;23.00;1.00;;;;;;6131897;23;20594;-91
2022/09/05 04:09:44;;;;;;;3.07;1.77;;;22.80;99.90;;;;;;6130305;23;20157;-90
2022/09/05 04:12:18;;;;;;;3.77;2.00;;;22.90;22.20;;;;;;6104398;23;20150;-89
2022/09/05 04:14:54;;;;;;;4.77;1.90;;;22.90;99.90;;;;;;6104262;23;20325;-89
2022/09/05 04:17:45;;;;;;;4.53;2.00;;;22.80;1.00;;;;;;6132531;23;20161;-89
2022/09/05 04:23:43;;;;;;;3.10;1.60;;;22.90;1.00;;;;;;6131648;23;20156;-90
2022/09/05 04:26:34;;;;;;;2.33;1.50;;;22.80;1.00;;;;;;6129272;23;20214;-90
2022/09/05 04:29:18;;;;;;;3.67;1.90;;;22.70;1.00;;;;;;6129417;23;20199;-90
2022/09/05 04:32:16;;;;;;;4.60;1.90;;;22.70;1.00;;;;;;6131845;23;20142;-88
2022/09/05 04:34:54;;;;;;;3.70;1.90;;;22.70;1.00;;;;;;6105929;23;20213;-89
2022/09/05 04:37:44;;;;;;;3.20;1.90;;;22.70;1.00;;;;;;6139433;23;20472;-90
2022/09/05 04:40:57;;;;;;;5.10;2.13;;;22.70;1.00;;;;;;6135982;23;20458;-87
2022/09/05 04:43:44;;;;;;;4.07;1.77;;;22.70;1.00;;;;;;6004021;23;20158;-88
2022/09/05 04:46:15;;;;;;;4.03;1.87;;;22.70;1.00;;;;;;6030600;23;20250;-88
2022/09/05 04:48:58;;;;;;;7.07;2.20;;;22.60;1.00;;;;;;6110969;23;20188;-86
2022/09/05 04:51:37;;;;;;;5.90;2.00;;;22.70;1.00;;;;;;6122087;23;20168;-88
2022/09/05 04:54:12;;;;;;;5.13;2.07;;;22.80;1.00;;;;;;6151661;23;20244;-87
2022/09/05 04:56:48;;;;;;;3.20;2.10;;;22.80;1.00;;;;;;6151637;23;20166;-88
2022/09/05 04:59:25;;;;;;;5.23;2.13;;;22.90;1.00;;;;;;6102185;23;20181;-88
2022/09/05 05:02:38;;;;;;;2.70;2.10;;;22.90;1.00;;;;;;6108463;23;20170;-91
2022/09/05 05:12:38;;;;;;;6.17;2.00;;;22.60;99.90;;;;;;6138140;23;20149;-89
2022/09/05 05:15:11;;;;;;;5.23;2.00;;;22.80;99.90;;;;;;6099683;23;20187;-89
2022/09/05 05:17:59;;;;;;;3.40;1.83;;;22.90;99.90;;;;;;6132186;23;20141;-90
2022/09/05 05:20:46;;;;;;;6.23;2.00;;;22.90;99.90;;;;;;6131597;23;20146;-90
2022/09/05 05:23:40;;;;;;;5.00;2.07;;;23.00;26.60;;;;;;6108890;23;20457;-90
2022/09/05 05:26:24;;;;;;;5.33;2.00;;;23.10;11.50;;;;;;6130571;23;20643;-90
2022/09/05 05:29:07;;;;;;;6.70;2.10;;;23.10;99.90;;;;;;6103667;23;20181;-91
2022/09/05 05:31:50;;;;;;;5.60;2.20;;;23.20;1.00;;;;;;6104080;23;20173;-91
2022/09/05 05:34:31;;;;;;;4.43;1.87;;;23.20;99.90;;;;;;6130150;23;20161;-90
2022/09/05 05:37:15;;;;;;;5.70;2.67;;;23.20;99.90;;;;;;6104510;23;20258;-87
2022/09/05 05:39:49;;;;;;;5.33;3.17;;;23.20;1.00;;;;;;6104137;23;20528;-84
2022/09/05 05:42:22;;;;;;;8.00;1.97;;;23.30;1.00;;;;;;6116787;23;20154;-84
2022/09/05 05:44:54;;;;;;;5.40;2.30;;;23.40;1.00;;;;;;6133738;23;20147;-87
2022/09/05 05:47:25;;;;;;;5.63;2.20;;;23.50;1.00;;;;;;6129142;23;20169;-86
2022/09/05 05:50:37;;;;;;;8.30;2.40;;;23.60;1.00;;;;;;6127886;23;20141;-87
2022/09/05 05:53:27;;;;;;;6.73;2.20;;;23.60;99.90;;;;;;6011084;23;20528;-88
2022/09/05 05:56:16;;;;;;;8.37;2.73;;;23.60;1.00;;;;;;6126194;23;20198;-88
2022/09/05 05:58:57;;;;;;;5.70;2.40;;;23.70;1.00;;;;;;6130515;23;20181;-86
2022/09/05 06:01:53;;;;;;;5.60;2.63;;;23.80;99.90;;;;;;6119348;23;20182;-86
2022/09/05 06:04:28;;;;;;;5.97;2.47;;;23.90;99.90;;;;;;6122090;23;20143;-93
2022/09/05 06:07:20;;;;;;;5.10;1.87;;;24.00;1.00;;;;;;6134256;23;20162;-93
2022/09/05 06:10:00;;;;;;;5.23;2.20;;;24.10;99.90;;;;;;6139865;23;20153;-92
2022/09/05 06:12:35;;;;;;;7.90;2.27;;;24.00;1.00;;;;;;6135104;23;20233;-92
2022/09/05 06:15:31;;;;;;;6.57;1.83;;;23.90;99.90;;;;;;6135333;23;20730;-92
2022/09/05 06:18:08;;;;;;;7.70;2.07;;;23.90;1.00;;;;;;6104741;23;20233;-95
2022/09/05 06:20:59;;;;;;;5.67;2.17;;;24.00;99.90;;;;;;6106373;23;20175;-92
2022/09/05 06:24:17;;;;;;;10.73;5.90;;;24.00;99.90;;;;;;6128894;23;20159;-96
2022/09/05 06:27:20;;;;;;;4.87;2.20;;;24.00;99.90;;;;;;6081125;23;20151;-93
2022/09/05 06:30:06;;;;;;;4.57;1.70;;;24.10;99.90;;;;;;6105779;23;20139;-92
2022/09/05 06:33:09;;;;;;;2.63;1.80;;;24.20;1.00;;;;;;6130722;23;20221;-94
2022/09/05 06:35:50;;;;;;;4.43;1.70;;;24.40;85.80;;;;;;6102535;23;20178;-91
2022/09/05 06:38:29;;;;;;;4.03;1.70;;;24.40;1.00;;;;;;6104813;23;20233;-93
2022/09/05 06:41:18;;;;;;;4.83;1.93;;;24.50;99.90;;;;;;6105268;23;20175;-91
2022/09/05 06:44:03;;;;;;;6.40;2.63;;;24.70;99.90;;;;;;6128679;23;20143;-90
2022/09/05 06:46:34;;;;;;;4.50;2.40;;;24.80;1.00;;;;;;6128724;23;20226;-92
2022/09/05 06:49:16;;;;;;;3.63;1.70;;;24.80;99.90;;;;;;6105181;23;20158;-92
2022/09/05 06:52:19;;;;;;;3.73;2.00;;;24.70;99.90;;;;;;6138144;23;20258;-92
2022/09/05 06:55:37;;;;;;;3.93;1.73;;;24.80;99.90;;;;;;6106815;23;20179;-93
2022/09/05 06:58:37;;;;;;;3.93;2.13;;;24.90;1.00;;;;;;6096561;23;20167;-92
2022/09/05 07:01:05;;;;;;;5.90;1.90;;;25.00;1.00;;;;;;6103940;23;20174;-91
2022/09/05 07:04:08;;;;;;;4.60;2.30;;;25.10;1.00;;;;;;6084032;23;20560;-91
2022/09/05 07:06:34;;;;;;;3.70;1.80;;;25.00;1.00;;;;;;6121878;23;20150;-94
2022/09/05 07:09:11;;;;;;;4.77;2.00;;;25.00;99.90;;;;;;6152465;23;20135;-92
2022/09/05 07:12:07;;;;;;;6.07;2.10;;;25.10;99.90;;;;;;6146151;23;20182;-92
2022/09/05 07:14:50;;;;;;;6.37;2.10;;;25.20;99.90;;;;;;6122786;23;20182;-92
2022/09/05 07:17:40;;;;;;;4.43;2.00;;;25.20;99.90;;;;;;6138135;23;20174;-92
2022/09/05 07:21:00;;;;;;;4.33;2.20;;;25.20;99.90;;;;;;6106895;23;20159;-91
2022/09/05 07:24:01;;;;;;;7.37;2.63;;;25.10;1.00;;;;;;6103535;23;20176;-92
2022/09/05 07:26:32;;;;;;;4.20;2.03;;;25.00;1.00;;;;;;6045654;23;20154;-94
2022/09/05 07:29:19;;;;;;;5.87;2.20;;;25.00;1.00;;;;;;6105076;23;20151;-91
2022/09/05 07:31:50;;;;;;;5.03;2.23;;;25.00;1.00;;;;;;6119905;23;20173;-92
2022/09/05 07:34:28;;;;;;;7.47;2.23;;;25.10;1.00;;;;;;6128003;23;20194;-92
2022/09/05 07:37:08;;;;;;;8.53;1.90;;;25.20;99.90;;;;;;6147627;23;20173;-90
2022/09/05 07:39:42;;;;;;;3.50;2.20;;;25.40;1.00;;;;;;6150961;23;20179;-90
2022/09/05 07:42:21;;;;;;;5.53;2.13;;;25.50;99.90;;;;;;6128011;23;20178;-89
2022/09/05 07:45:00;;;;;;;3.37;2.10;;;25.50;56.40;;;;;;6127020;23;20210;-91
2022/09/05 07:47:38;;;;;;;3.77;1.80;;;25.50;1.00;;;;;;6108937;23;20203;-89
2022/09/05 07:50:08;;;;;;;4.60;1.87;;;25.40;1.00;;;;;;6119252;23;20145;-92
2022/09/05 07:52:39;;;;;;;5.73;2.10;;;25.40;10.50;;;;;;6123126;23;20290;-92
2022/09/05 07:55:28;;;;;;;5.50;1.87;;;25.20;99.90;;;;;;6113069;23;20179;-91
2022/09/05 07:57:59;;;;;;;4.87;1.87;;;25.40;99.90;;;;;;6105736;23;20148;-90
2022/09/05 08:00:28;;;;;;;4.40;2.33;;;25.50;99.90;;;;;;6103346;23;20199;-90
2022/09/05 08:02:54;;;;;;;5.37;2.30;;;25.60;1.00;;;;;;6129542;23;20187;-94
2022/09/05 08:05:22;;;;;;;4.47;2.47;;;25.80;96.70;;;;;;6108939;23;20182;-89
2022/09/05 08:08:00;;;;;;;5.33;2.30;;;26.00;1.00;;;;;;6121850;23;20212;-90
2022/09/05 08:10:30;;;;;;;6.33;1.83;;;26.10;6.40;;;;;;6144817;23;20142;-91
2022/09/05 08:13:09;;;;;;;5.43;1.87;;;26.20;1.00;;;;;;6120885;23;20155;-93
2022/09/05 08:15:37;;;;;;;6.73;2.10;;;26.20;1.00;;;;;;6117104;23;20215;-90
2022/09/05 08:18:08;;;;;;;3.33;1.97;;;26.10;1.00;;;;;;6097880;23;20163;-90
2022/09/05 08:21:10;;;;;;;4.90;2.13;;;26.00;79.00;;;;;;6140665;23;20148;-92
2022/09/05 08:23:48;;;;;;;4.97;2.00;;;26.20;99.90;;;;;;6002956;23;20165;-91
2022/09/05 08:26:18;;;;;;;4.63;1.60;;;26.20;1.00;;;;;;6099711;23;20151;-88
2022/09/05 08:29:05;;;;;;;9.47;2.90;;;26.40;99.90;;;;;;6120387;23;20187;-93
2022/09/05 08:31:31;;;;;;;5.30;2.33;;;26.30;1.00;;;;;;6151493;23;20164;-90
2022/09/05 08:34:01;;;;;;;3.93;1.90;;;26.30;1.00;;;;;;6146160;23;20175;-92
2022/09/05 08:36:46;;;;;;;9.53;2.40;;;26.50;99.90;;;;;;6148589;23;20160;-92
2022/09/05 08:39:30;;;;;;;6.00;2.30;;;26.50;1.00;;;;;;6121811;23;20150;-92
2022/09/05 08:42:20;;;;;;;6.30;2.00;;;26.70;99.90;;;;;;6117758;23;20265;-90
2022/09/05 08:45:07;;;;;;;4.97;2.03;;;26.80;1.00;;;;;;6117347;23;20198;-90
2022/09/05 08:47:51;;;;;;;4.63;2.40;;;26.80;1.00;;;;;;6140280;23;20150;-90
2022/09/05 08:50:54;;;;;;;5.83;2.30;;;26.80;1.00;;;;;;6143065;23;20150;-89
2022/09/05 08:53:39;;;;;;;5.15;2.40;;;26.80;99.90;;;;;;6151281;23;20204;-90
2022/09/05 08:56:22;;;;;;;5.63;2.07;;;26.80;99.90;;;;;;6136403;23;20231;-90
2022/09/05 08:59:09;;;;;;;7.70;2.40;;;26.80;99.90;;;;;;6107578;23;20151;-91
2022/09/05 09:02:01;;;;;;;3.38;1.98;;;27.00;99.90;;;;;;6131275;23;20174;-90
2022/09/05 09:04:44;;;;;;;7.60;2.00;;;27.10;99.90;;;;;;6137585;23;20162;-91
2022/09/05 09:07:13;;;;;;;5.77;2.00;;;27.20;54.80;;;;;;6109276;23;20172;-89
2022/09/05 09:10:10;;;;;;;3.85;1.98;;;27.30;1.00;;;;;;6131456;23;20494;-90
2022/09/05 09:13:03;;;;;;;3.38;1.90;;;27.50;1.00;;;;;;6064033;23;20252;-91
2022/09/05 09:15:45;;;;;;;4.03;2.13;;;27.80;99.90;;;;;;6134411;23;20175;-90
2022/09/05 09:18:20;;;;;;;7.22;1.90;;;28.00;99.90;;;;;;6110625;23;20147;-92
2022/09/05 09:21:24;;;;;;;5.43;2.22;;;28.20;99.90;;;;;;6105000;23;20150;-93
2022/09/05 09:23:55;;;;;;;6.38;2.22;;;28.40;1.00;;;;;;6105107;23;20158;-92
2022/09/05 09:26:31;;;;;;;6.38;2.05;;;28.20;1.00;;;;;;6105850;23;20603;-90
2022/09/05 09:29:11;;;;;;;7.78;2.13;;;28.10;1.00;;;;;;6081257;23;20222;-92
2022/09/05 09:32:04;;;;;;;8.13;2.38;;;28.20;1.00;;;;;;6104209;23;20250;-92
2022/09/05 09:34:39;;;;;;;4.75;2.05;;;28.30;91.00;;;;;;6129038;23;20182;-90
2022/09/05 09:37:43;;;;;;;4.80;2.22;;;28.50;1.00;;;;;;6112499;23;20162;-93
2022/09/05 09:40:19;;;;;;;4.18;2.00;;;28.70;1.00;;;;;;6105625;23;20187;-95
2022/09/05 09:43:13;;;;;;;5.53;2.10;;;28.90;1.00;;;;;;6106048;23;20147;-92
2022/09/05 09:46:00;;;;;;;9.15;2.05;;;29.00;1.00;;;;;;6130906;23;20135;-93
2022/09/05 09:48:38;;;;;;;4.85;2.00;;;28.90;99.90;;;;;;6127962;23;20154;-92
2022/09/05 09:51:29;;;;;;;3.30;2.00;;;28.90;99.90;;;;;;6129960;23;20161;-92
2022/09/05 09:54:16;;;;;;;7.32;2.50;;;29.00;99.90;;;;;;6129333;23;20159;-92
2022/09/05 09:57:19;;;;;;;3.67;2.25;;;29.10;99.90;;;;;;6129143;23;20557;-94
2022/09/05 10:00:12;;;;;;;9.15;2.20;;;29.00;99.90;;;;;;6119934;23;20162;-91
2022/09/05 10:03:06;;;;;;;5.88;2.30;;;28.90;99.90;;;;;;6130976;23;20170;-92
2022/09/05 10:05:44;;;;;;;7.15;2.15;;;28.90;99.90;;;;;;6130504;23;20157;-94
2022/09/05 10:08:16;;;;;;;9.30;4.75;;;29.00;99.90;;;;;;6106830;23;20222;-92
2022/09/05 10:11:12;;;;;;;4.30;1.80;;;29.20;99.90;;;;;;6145870;23;20143;-93
2022/09/05 10:14:11;;;;;;;5.15;2.28;;;29.10;99.90;;;;;;6122348;23;20174;-92
2022/09/05 10:16:56;;;;;;;6.88;2.17;;;29.40;99.90;;;;;;6149948;23;20151;-93
2022/09/05 10:19:35;;;;;;;6.50;1.77;;;29.40;99.90;;;;;;6148996;23;20155;-92
2022/09/05 10:22:06;;;;;;;4.60;2.13;;;29.50;96.40;;;;;;6145740;23;20143;-93
2022/09/05 10:24:40;;;;;;;4.47;1.98;;;29.50;99.90;;;;;;6143760;23;20178;-93
2022/09/05 10:27:24;;;;;;;6.18;1.77;;;29.40;99.90;;;;;;6141707;23;20282;-93
2022/09/05 10:30:05;;;;;;;8.13;2.20;;;29.50;39.10;;;;;;6119485;23;20182;-92
2022/09/05 10:32:48;;;;;;;7.88;2.35;;;29.60;1.00;;;;;;6144909;23;20134;-93
2022/09/05 10:35:23;;;;;;;11.35;4.20;;;29.40;1.00;;;;;;6119776;23;20203;-94
2022/09/05 10:38:10;;;;;;;6.55;3.05;;;29.40;4.20;;;;;;6135882;23;20162;-92
2022/09/05 10:40:42;;;;;;;3.13;1.65;;;29.60;1.00;;;;;;6113740;23;20189;-94
2022/09/05 10:43:29;;;;;;;5.70;1.90;;;29.70;1.00;;;;;;6122136;23;20135;-92
2022/09/05 10:46:35;;;;;;;4.88;1.63;;;29.70;1.00;;;;;;6120698;23;20186;-93
2022/09/05 10:49:09;;;;;;;3.60;1.83;;;29.70;1.00;;;;;;6120371;23;20206;-93
2022/09/05 10:52:04;;;;;;;8.48;2.05;;;29.80;1.00;;;;;;6137603;23;20143;-93
2022/09/05 10:55:01;;;;;;;2.83;1.80;;;29.90;1.00;;;;;;6115569;23;20182;-92
2022/09/05 10:57:38;;;;;;;5.38;1.50;;;30.00;1.00;;;;;;6139611;23;20198;-92
2022/09/05 11:00:28;;;;;;;5.03;1.63;;;29.90;1.00;;;;;;6140178;23;20211;-91
2022/09/05 11:03:00;;;;;;;5.00;1.80;;;29.80;1.00;;;;;;6115589;23;20170;-92
2022/09/05 11:05:35;;;;;;;5.93;1.75;;;29.80;1.00;;;;;;6090381;23;20647;-93
2022/09/05 11:08:43;;;;;;;2.78;1.50;;;29.90;1.00;;;;;;6108518;23;20181;-93
2022/09/05 11:11:18;;;;;;;3.90;1.50;;;30.10;1.00;;;;;;6135618;23;20155;-93
2022/09/05 11:13:57;;;;;;;3.30;1.60;;;30.30;1.00;;;;;;6116419;23;20139;-94
2022/09/05 11:16:38;;;;;;;4.30;1.85;;;30.40;99.90;;;;;;6126757;23;20195;-94
2022/09/05 11:19:13;;;;;;;4.78;1.45;;;30.40;99.90;;;;;;6126226;23;20155;-93
2022/09/05 11:22:14;;;;;;;5.03;1.67;;;30.60;99.90;;;;;;6144495;23;20142;-96
2022/09/05 11:25:03;;;;;;;3.45;1.50;;;30.70;99.90;;;;;;6106939;23;20218;-93
2022/09/05 11:27:46;;;;;;;4.60;1.63;;;30.60;99.90;;;;;;6107963;23;20151;-91
2022/09/05 11:30:17;;;;;;;5.38;1.67;;;30.50;99.90;;;;;;6107581;23;20173;-92
2022/09/05 11:32:45;;;;;;;6.47;2.03;;;30.60;99.90;;;;;;6109338;23;20151;-93
2022/09/05 11:35:20;;;;;;;3.00;1.42;;;30.60;99.90;;;;;;6150379;23;20234;-92
2022/09/05 11:37:57;;;;;;;3.58;1.52;;;30.60;99.90;;;;;;6151325;23;20226;-94
2022/09/05 11:41:10;;;;;;;4.70;2.03;;;30.60;99.90;;;;;;6150678;23;20193;-90
2022/09/05 11:44:29;;;;;;;6.45;1.40;;;30.70;99.90;;;;;;5991811;23;20205;-93
2022/09/05 11:46:54;;;;;;;6.60;1.60;;;30.90;99.90;;;;;;5989474;23;20146;-92
2022/09/05 11:49:58;;;;;;;4.43;1.65;;;31.10;99.90;;;;;;6132157;23;20143;-93
2022/09/05 11:52:58;;;;;;;2.90;1.90;;;31.10;99.90;;;;;;6106863;23;20162;-91
2022/09/05 11:55:34;;;;;;;4.10;1.80;;;31.00;99.90;;;;;;6108121;23;20192;-91
2022/09/05 11:58:23;;;;;;;2.83;1.40;;;31.00;99.90;;;;;;6132672;23;20139;-92
2022/09/05 12:01:18;;;;;;;5.10;1.60;;;30.90;99.90;;;;;;6106320;23;20541;-92
2022/09/05 12:04:02;;;;;;;7.82;3.60;;;30.80;99.90;;;;;;6107867;23;20214;-94
2022/09/05 12:06:56;;;;;;;9.02;2.80;;;30.90;99.90;;;;;;6138525;23;20142;-91
2022/09/05 12:09:34;;;;;;;5.03;1.60;;;31.00;99.90;;;;;;6154241;23;20140;-90
2022/09/05 12:12:28;;;;;;;5.13;1.90;;;31.10;99.90;;;;;;6153228;23;20146;-92
2022/09/05 12:15:17;;;;;;;5.95;1.70;;;31.40;99.90;;;;;;6126247;23;20166;-90
2022/09/05 12:18:04;;;;;;;3.60;1.50;;;31.30;99.90;;;;;;6126448;23;20191;-91
2022/09/05 12:20:52;;;;;;;25.00;19.20;;;31.40;99.90;;;;;;6108056;23;20155;-92
2022/09/05 12:23:55;;;;;;;7.95;2.47;;;31.50;99.90;;;;;;6087273;23;20175;-92
2022/09/05 12:27:20;;;;;;;10.38;2.40;;;31.70;99.90;;;;;;6106881;23;20142;-90
2022/09/05 12:29:53;;;;;;;6.60;2.10;;;31.60;99.90;;;;;;6106931;23;20143;-92
2022/09/05 12:32:20;;;;;;;6.70;1.90;;;31.60;99.90;;;;;;6106303;23;20155;-90
2022/09/05 12:34:51;;;;;;;7.57;2.45;;;31.70;99.90;;;;;;6131193;23;20182;-91
2022/09/05 12:37:59;;;;;;;3.17;1.35;;;32.00;99.90;;;;;;6095781;23;20209;-91
2022/09/05 12:40:32;;;;;;;3.60;1.58;;;32.10;99.90;;;;;;6110369;23;20182;-92
2022/09/05 12:43:07;;;;;;;2.67;1.48;;;32.10;99.90;;;;;;6128213;23;20135;-92
2022/09/05 12:45:46;;;;;;;3.65;1.52;;;32.10;99.90;;;;;;6128944;23;20189;-92
2022/09/05 12:48:24;;;;;;;5.43;1.73;;;32.30;99.90;;;;;;6128725;23;20158;-94
2022/09/05 12:50:59;;;;;;;7.15;2.03;;;32.40;99.90;;;;;;6128237;23;20157;-90
2022/09/05 12:53:39;;;;;;;3.67;1.92;;;32.70;99.90;;;;;;6128446;23;20127;-92
2022/09/05 12:56:15;;;;;;;3.95;1.73;;;32.70;99.90;;;;;;6110222;23;20179;-93
2022/09/05 12:58:51;;;;;;;3.00;1.55;;;32.70;99.90;;;;;;6107157;23;20153;-91
2022/09/05 13:01:39;;;;;;;4.75;1.40;;;32.60;99.90;;;;;;6108000;23;20171;-93
2022/09/05 13:04:20;;;;;;;3.10;1.70;;;32.50;99.90;;;;;;6107806;23;20507;-93
2022/09/05 13:07:13;;;;;;;3.65;1.50;;;32.50;99.90;;;;;;6105644;23;20170;-93
2022/09/05 13:09:52;;;;;;;3.63;1.70;;;32.40;99.90;;;;;;6107431;23;20147;-92
2022/09/05 13:12:38;;;;;;;3.38;1.50;;;32.50;99.90;;;;;;6111965;23;20222;-93
2022/09/05 13:15:06;;;;;;;2.15;1.58;;;32.70;99.90;;;;;;6106072;23;20202;-93
2022/09/05 13:17:37;;;;;;;6.38;2.20;;;32.70;98.40;;;;;;6132971;23;20584;-92
2022/09/05 13:20:16;;;;;;;2.80;1.60;;;32.60;97.60;;;;;;6133550;23;20250;-91
2022/09/05 13:22:45;;;;;;;5.28;1.80;;;32.60;99.90;;;;;;6114087;23;20147;-92
2022/09/05 13:25:25;;;;;;;3.42;1.70;;;32.60;99.90;;;;;;6118972;23;20159;-94
2022/09/05 13:28:01;;;;;;;5.05;2.40;;;32.70;93.70;;;;;;6108963;23;20152;-92
2022/09/05 13:30:30;;;;;;;5.00;1.83;;;32.60;94.60;;;;;;6106808;23;20151;-94
2022/09/05 13:33:01;;;;;;;2.38;1.75;;;32.40;93.20;;;;;;6107492;23;20218;-93
2022/09/05 13:35:35;;;;;;;6.32;1.73;;;32.60;92.60;;;;;;6107946;23;20182;-91
2022/09/05 13:38:26;;;;;;;4.82;3.38;;;32.80;79.10;;;;;;6130567;23;20295;-90
2022/09/05 13:40:58;;;;;;;3.63;2.33;;;32.90;61.80;;;;;;6107580;23;20254;-92
2022/09/05 13:43:37;;;;;;;3.97;1.92;;;32.70;59.70;;;;;;6110269;23;20155;-93
2022/09/05 13:46:25;;;;;;;3.08;1.60;;;32.70;63.00;;;;;;6121215;23;20150;-91
2022/09/05 13:49:05;;;;;;;4.05;1.50;;;32.90;53.10;;;;;;6094870;23;20202;-91
2022/09/05 13:51:44;;;;;;;3.58;1.40;;;33.10;38.40;;;;;;6148962;23;20143;-90
2022/09/05 13:54:32;;;;;;;4.07;1.50;;;32.50;26.00;;;;;;6124794;23;20250;-91
2022/09/05 13:57:28;;;;;;;3.88;1.45;;;32.10;37.10;;;;;;6118400;23;20163;-90
2022/09/05 14:00:12;;;;;;;4.63;1.77;;;32.20;48.10;;;;;;6127495;23;20159;-92
2022/09/05 14:03:18;;;;;;;5.15;1.70;;;32.20;57.70;;;;;;6152234;23;20163;-91
2022/09/05 14:06:24;;;;;;;4.65;1.60;;;32.30;65.30;;;;;;6124155;23;20166;-90
2022/09/05 14:09:29;;;;;;;3.38;1.48;;;32.70;65.00;;;;;;6120845;23;20154;-90
2022/09/05 14:12:10;;;;;;;4.55;1.90;;;32.90;42.40;;;;;;6119497;23;20158;-91
2022/09/05 14:14:49;;;;;;;2.65;2.10;;;33.20;33.60;;;;;;6134740;23;20174;-92
2022/09/05 14:17:37;;;;;;;5.57;1.73;;;33.40;21.60;;;;;;6113343;23;20225;-91
2022/09/05 14:23:05;;;;;;;4.20;1.70;;;33.30;1.00;;;;;;6148011;23;20206;-88
2022/09/05 14:25:43;;;;;;;4.35;1.40;;;33.00;1.00;;;;;;6108334;23;20195;-91
2022/09/05 14:28:32;;;;;;;3.53;1.55;;;32.70;1.00;;;;;;6107980;23;20211;-91
2022/09/05 14:31:11;;;;;;;6.15;1.80;;;32.30;10.20;;;;;;6105908;23;20159;-90
2022/09/05 14:34:11;;;;;;;2.83;1.70;;;31.70;25.40;;;;;;6105145;23;20154;-92
2022/09/05 14:37:06;;;;;;;5.45;1.92;;;31.60;46.70;;;;;;6129563;23;20147;-93
2022/09/05 14:39:56;;;;;;;6.07;1.90;;;31.60;61.80;;;;;;6105963;23;20197;-89
2022/09/05 14:42:41;;;;;;;4.25;1.85;;;31.60;66.20;;;;;;6118329;23;20155;-92
2022/09/05 14:45:44;;;;;;;5.05;1.88;;;31.70;93.40;;;;;;6149102;23;20186;-90
2022/09/05 14:48:27;;;;;;;3.30;1.70;;;32.00;79.40;;;;;;6123351;23;20185;-92
2022/09/05 14:51:12;;;;;;;2.63;1.50;;;32.20;58.40;;;;;;6117270;23;20218;-91
2022/09/05 14:53:59;;;;;;;4.57;1.85;;;32.20;42.50;;;;;;6116513;23;20179;-93